Aviation Digital Data Service (ADDS)

Output produced by METARs form (1938 UTC 18 June 2019)
found at http://www.aviationweather.gov/metar/data/
 
FMCH 181800Z 17004KT 110V230 9999 FEW020TCU 26/22 Q1018 NOSIG
FMCH 181700Z 1818/1924 VRB02KT 9999 FEW020 SCT030 
     BECMG 1905/1907 20015KT 
     PROB30 
     TEMPO 1908/1914 4000 SHRA 
     BECMG 1916/1918 10003KT